Time;durP1;ratioP1;P1;durP2;ratioP2;P2;SDS_P1;SDS_P2;PMS_P1;PMS_P2;Temp;Humidity;BMP_temperature;BMP_pressure;BME280_temperature;BME280_humidity;BME280_pressure;Samples;Min_cycle;Max_cycle;Signal;HPM_P1;HPM_P2
2023/07/25 00:00:45;;;;;;;;;;;;;;;-140.72;100.00;52800.75;5083938;28;20967;-69
2023/07/25 00:03:11;;;;;;;;;;;;;;;-140.72;100.00;52772.34;5089425;28;19942;-70
2023/07/25 00:05:36;;;;;;;;;;;;;;;-140.72;100.00;52784.53;5084322;28;19920;-70
2023/07/25 00:08:02;;;;;;;;;;;;;;;-140.72;100.00;52772.34;5105071;28;20293;-69
2023/07/25 00:10:27;;;;;;;;;;;;;;;-140.72;100.00;52754.09;5103894;28;19920;-69
2023/07/25 00:12:54;;;;;;;;;;;;;;;-140.72;100.00;52788.59;5101466;28;19920;-69
2023/07/25 00:15:20;;;;;;;;;;;;;;;-140.72;100.00;52739.88;5100642;28;20088;-69
2023/07/25 00:17:45;;;;;;;;;;;;;;;-140.72;100.00;52788.59;5105766;28;19977;-69
2023/07/25 00:20:10;;;;;;;;;;;;;;;-140.72;100.00;52808.88;5093518;28;19934;-70
2023/07/25 00:22:36;;;;;;;;;;;;;;;-140.72;100.00;52812.94;5103188;28;19943;-70
2023/07/25 00:25:01;;;;;;;;;;;;;;;-140.72;100.00;52792.66;5094790;28;19915;-70
2023/07/25 00:27:26;;;;;;;;;;;;;;;-140.72;100.00;52774.38;5096776;28;19920;-69
2023/07/25 00:29:51;;;;;;;;;;;;;;;-140.72;100.00;52780.47;5094436;28;19998;-70
2023/07/25 00:32:17;;;;;;;;;;;;;;;-140.72;100.00;52804.81;5086809;28;20335;-69
2023/07/25 00:34:42;;;;;;;;;;;;;;;-140.72;100.00;52786.56;5098466;28;19933;-70
2023/07/25 00:37:07;;;;;;;;;;;;;;;-140.72;100.00;52762.22;5101824;28;20251;-71
2023/07/25 00:39:32;;;;;;;;;;;;;;;-140.72;100.00;52784.53;5096893;28;19965;-70
2023/07/25 00:41:58;;;;;;;;;;;;;;;-140.72;100.00;52784.53;5100337;28;19954;-70
2023/07/25 00:44:23;;;;;;;;;;;;;;;-140.72;100.00;52756.13;5092985;28;20042;-70
2023/07/25 00:46:48;;;;;;;;;;;;;;;-140.72;100.00;52794.69;5102121;28;19920;-69
2023/07/25 00:49:14;;;;;;;;;;;;;;;-140.72;100.00;52817.00;5103743;28;19935;-70
2023/07/25 00:51:39;;;;;;;;;;;;;;;-140.72;100.00;52778.44;5098144;28;19926;-69
2023/07/25 00:54:05;;;;;;;;;;;;;;;-140.72;100.00;52792.66;5098102;28;19926;-70
2023/07/25 00:56:31;;;;;;;;;;;;;;;-140.72;100.00;52776.41;5101588;28;19924;-69
2023/07/25 00:58:56;;;;;;;;;;;;;;;-140.72;100.00;52808.88;5096138;28;19924;-70
2023/07/25 01:01:22;;;;;;;;;;;;;;;-140.72;100.00;52843.38;5102146;28;19931;-70
2023/07/25 01:03:47;;;;;;;;;;;;;;;-140.72;100.00;52768.28;5098699;28;19990;-71
2023/07/25 01:06:13;;;;;;;;;;;;;;;-140.72;100.00;52812.94;5078630;28;20020;-70
2023/07/25 01:08:52;;;;;;;;;;;;;;;-140.72;100.00;52782.50;5098083;28;20352;-70
2023/07/25 01:11:17;;;;;;;;;;;;;;;-140.72;100.00;52800.75;5102155;28;19928;-70
2023/07/25 01:13:43;;;;;;;;;;;;;;;-140.72;100.00;52806.84;5095349;28;19927;-70
2023/07/25 01:16:09;;;;;;;;;;;;;;;-140.72;100.00;52776.41;5092856;28;20304;-69
2023/07/25 01:18:35;;;;;;;;;;;;;;;-140.72;100.00;52780.47;5083278;28;20078;-70
2023/07/25 01:21:01;;;;;;;;;;;;;;;-140.72;100.00;52810.91;5101581;28;20003;-70
2023/07/25 01:23:26;;;;;;;;;;;;;;;-140.72;100.00;52784.53;5083780;28;19920;-70
2023/07/25 01:25:52;;;;;;;;;;;;;;;-140.72;100.00;52802.78;5095934;28;19921;-71
2023/07/25 01:28:17;;;;;;;;;;;;;;;-140.72;100.00;52792.66;5036278;28;1803498;-70
2023/07/25 01:30:42;;;;;;;;;;;;;;;-140.72;100.00;52739.88;5098406;28;20537;-70
2023/07/25 01:33:07;;;;;;;;;;;;;;;-140.72;100.00;52827.16;5097990;28;19920;-69
2023/07/25 01:35:33;;;;;;;;;;;;;;;-140.72;100.00;52778.44;5102557;28;19965;-69
2023/07/25 01:37:58;;;;;;;;;;;;;;;-140.72;100.00;52800.75;5098741;28;19994;-69
2023/07/25 01:40:23;;;;;;;;;;;;;;;-140.72;100.00;52804.81;5092637;28;20061;-70
2023/07/25 01:42:48;;;;;;;;;;;;;;;-140.72;100.00;52794.69;5102697;28;19923;-69
2023/07/25 01:45:13;;;;;;;;;;;;;;;-140.72;100.00;52829.19;5095938;28;19920;-70
2023/07/25 01:47:39;;;;;;;;;;;;;;;-140.72;100.00;52784.53;5099058;28;19920;-70
2023/07/25 01:50:04;;;;;;;;;;;;;;;-140.72;100.00;52798.72;5091050;28;19988;-70
2023/07/25 01:52:31;;;;;;;;;;;;;;;-140.72;100.00;52812.94;5099457;28;19940;-70
2023/07/25 01:54:56;;;;;;;;;;;;;;;-140.72;100.00;52776.41;5104808;28;19930;-71
2023/07/25 01:57:21;;;;;;;;;;;;;;;-140.72;100.00;52776.41;5092373;28;20292;-70
2023/07/25 01:59:47;;;;;;;;;;;;;;;-140.72;100.00;52804.81;5097135;28;20301;-70
2023/07/25 02:02:12;;;;;;;;;;;;;;;-140.72;100.00;52776.41;5097356;28;19920;-71
2023/07/25 02:04:38;;;;;;;;;;;;;;;-140.72;100.00;52796.72;5085173;28;19919;-70
2023/07/25 02:07:03;;;;;;;;;;;;;;;-140.72;100.00;52772.34;5088491;28;19927;-70
2023/07/25 02:09:28;;;;;;;;;;;;;;;-140.72;100.00;52808.88;5082012;28;19968;-70
2023/07/25 02:11:53;;;;;;;;;;;;;;;-140.72;100.00;52778.44;5092131;28;19923;-69
2023/07/25 02:14:19;;;;;;;;;;;;;;;-140.72;100.00;52796.72;5104297;28;19927;-69
2023/07/25 02:16:44;;;;;;;;;;;;;;;-140.72;100.00;52817.00;5099305;28;19965;-70
2023/07/25 02:19:09;;;;;;;;;;;;;;;-140.72;100.00;52794.69;5101859;28;20049;-70
2023/07/25 02:21:35;;;;;;;;;;;;;;;-140.72;100.00;52812.94;5087292;28;19956;-70
2023/07/25 02:24:00;;;;;;;;;;;;;;;-140.72;100.00;52808.88;5097536;28;20004;-69
2023/07/25 02:26:25;;;;;;;;;;;;;;;-140.72;100.00;52778.44;5090696;28;20294;-70
2023/07/25 02:28:51;;;;;;;;;;;;;;;-140.72;100.00;52806.84;5086940;28;19935;-70
2023/07/25 02:31:16;;;;;;;;;;;;;;;-140.72;100.00;52827.16;5098586;28;20449;-70
2023/07/25 02:33:42;;;;;;;;;;;;;;;-140.72;100.00;52829.19;5088140;28;19920;-69
2023/07/25 02:36:07;;;;;;;;;;;;;;;-140.72;100.00;52750.03;5081640;28;19973;-70
2023/07/25 02:38:33;;;;;;;;;;;;;;;-140.72;100.00;52796.72;5092349;28;19963;-70
2023/07/25 02:40:58;;;;;;;;;;;;;;;-140.72;100.00;52823.09;5095424;28;19950;-70
2023/07/25 02:43:23;;;;;;;;;;;;;;;-140.72;100.00;52768.28;5092601;28;19927;-70
2023/07/25 02:45:52;;;;;;;;;;;;;;;-140.72;100.00;52784.53;5087787;28;19924;-70
2023/07/25 02:48:17;;;;;;;;;;;;;;;-140.72;100.00;52790.63;5090737;28;19932;-70
2023/07/25 02:50:43;;;;;;;;;;;;;;;-140.72;100.00;52810.91;5085698;28;19920;-71
2023/07/25 02:53:09;;;;;;;;;;;;;;;-140.72;100.00;52782.50;5089001;28;19920;-70
2023/07/25 02:55:37;;;;;;;;;;;;;;;-140.72;100.00;52735.81;5080203;28;20025;-70
2023/07/25 02:58:03;;;;;;;;;;;;;;;-140.72;100.00;52717.56;5090888;28;20295;-70
2023/07/25 03:00:28;;;;;;;;;;;;;;;-140.72;100.00;52784.53;5092437;28;19923;-70
2023/07/25 03:02:53;;;;;;;;;;;;;;;-140.72;100.00;52792.66;5090425;28;19916;-70
2023/07/25 03:05:19;;;;;;;;;;;;;;;-140.72;100.00;52810.91;5091922;28;19928;-69
2023/07/25 03:07:44;;;;;;;;;;;;;;;-140.72;100.00;52796.72;5093172;28;20032;-69
2023/07/25 03:10:09;;;;;;;;;;;;;;;-140.72;100.00;52812.94;5074257;28;19927;-69
2023/07/25 03:12:34;;;;;;;;;;;;;;;-140.72;100.00;52780.47;5086120;28;19928;-70
2023/07/25 03:15:00;;;;;;;;;;;;;;;-140.72;100.00;52784.53;5070154;28;19930;-69
2023/07/25 03:17:25;;;;;;;;;;;;;;;-140.72;100.00;52756.13;5092345;28;19924;-69
2023/07/25 03:19:51;;;;;;;;;;;;;;;-140.72;100.00;52792.66;5087737;28;19920;-69
2023/07/25 03:22:19;;;;;;;;;;;;;;;-140.72;100.00;52741.91;5086162;28;19924;-69
2023/07/25 03:24:45;;;;;;;;;;;;;;;-140.72;100.00;52792.66;5089040;28;19920;-71
2023/07/25 03:27:10;;;;;;;;;;;;;;;-140.72;100.00;52806.84;5088580;28;20296;-70
2023/07/25 03:29:35;;;;;;;;;;;;;;;-140.72;100.00;52745.97;5089188;28;19921;-70
2023/07/25 03:32:01;;;;;;;;;;;;;;;-140.72;100.00;52762.22;5089977;28;19947;-70
2023/07/25 03:34:26;;;;;;;;;;;;;;;-140.72;100.00;52754.09;5088554;28;19921;-69
2023/07/25 03:36:51;;;;;;;;;;;;;;;-140.72;100.00;52800.75;5091188;28;20338;-69
2023/07/25 03:39:16;;;;;;;;;;;;;;;-140.72;100.00;52798.72;5090019;28;19927;-69
2023/07/25 03:41:41;;;;;;;;;;;;;;;-140.72;100.00;52772.34;5086829;28;20370;-70
2023/07/25 03:44:07;;;;;;;;;;;;;;;-140.72;100.00;52743.94;5089685;28;19924;-69
2023/07/25 03:46:32;;;;;;;;;;;;;;;-140.72;100.00;52754.09;5066287;28;20945;-69
2023/07/25 03:48:58;;;;;;;;;;;;;;;-140.72;100.00;52760.19;5087582;28;19924;-71
2023/07/25 03:51:23;;;;;;;;;;;;;;;-140.72;100.00;52784.53;5077755;28;20273;-70
2023/07/25 03:53:48;;;;;;;;;;;;;;;-140.72;100.00;52770.31;5083323;28;19973;-70
2023/07/25 03:56:13;;;;;;;;;;;;;;;-140.72;100.00;52784.53;5068531;28;19916;-69
2023/07/25 03:58:39;;;;;;;;;;;;;;;-140.72;100.00;52786.56;5082757;28;19921;-69
2023/07/25 04:01:04;;;;;;;;;;;;;;;-140.72;100.00;52814.97;5089953;28;19920;-70
2023/07/25 04:03:29;;;;;;;;;;;;;;;-140.72;100.00;52782.50;5080390;28;19943;-70
2023/07/25 04:05:54;;;;;;;;;;;;;;;-140.72;100.00;52743.94;5093026;28;19921;-70
2023/07/25 04:08:20;;;;;;;;;;;;;;;-140.72;100.00;52772.34;5080667;28;19924;-71
2023/07/25 04:10:45;;;;;;;;;;;;;;;-140.72;100.00;52735.81;5084475;28;20033;-70
2023/07/25 04:13:10;;;;;;;;;;;;;;;-140.72;100.00;52772.34;5082827;28;19920;-70
2023/07/25 04:15:35;;;;;;;;;;;;;;;-140.72;100.00;52743.94;5080072;28;20008;-69
2023/07/25 04:18:01;;;;;;;;;;;;;;;-140.72;100.00;52792.66;5089599;28;20390;-70
2023/07/25 04:20:26;;;;;;;;;;;;;;;-140.72;100.00;52754.09;5088169;28;20965;-70
2023/07/25 04:22:52;;;;;;;;;;;;;;;-140.72;100.00;52756.13;5092407;28;20292;-70
2023/07/25 04:25:17;;;;;;;;;;;;;;;-140.72;100.00;52754.09;5089252;28;19920;-69
2023/07/25 04:27:42;;;;;;;;;;;;;;;-140.72;100.00;52735.81;5093341;28;20043;-69
2023/07/25 04:30:07;;;;;;;;;;;;;;;-140.72;100.00;52752.06;5088006;28;19920;-68
2023/07/25 04:32:33;;;;;;;;;;;;;;;-140.72;100.00;52733.78;5094041;28;19924;-70
2023/07/25 04:34:58;;;;;;;;;;;;;;;-140.72;100.00;52745.97;5096464;28;19927;-72
2023/07/25 04:37:23;;;;;;;;;;;;;;;-140.72;100.00;52766.25;5086334;28;19920;-74
2023/07/25 04:39:49;;;;;;;;;;;;;;;-140.72;100.00;52739.88;5087310;28;19920;-74
2023/07/25 04:42:14;;;;;;;;;;;;;;;-140.72;100.00;52776.41;5075062;28;19928;-73
2023/07/25 04:44:39;;;;;;;;;;;;;;;-140.72;100.00;52762.22;5077387;28;19930;-73
2023/07/25 04:47:06;;;;;;;;;;;;;;;-140.72;100.00;52790.63;5073036;28;19948;-73
2023/07/25 04:49:31;;;;;;;;;;;;;;;-140.72;100.00;52719.59;5089978;28;20014;-74
2023/07/25 04:51:56;;;;;;;;;;;;;;;-140.72;100.00;52784.53;5089765;28;20442;-75
2023/07/25 04:54:21;;;;;;;;;;;;;;;-140.72;100.00;52748.00;5087961;28;19924;-74
2023/07/25 04:56:47;;;;;;;;;;;;;;;-140.72;100.00;52745.97;5070349;28;19930;-74
2023/07/25 04:59:12;;;;;;;;;;;;;;;-140.72;100.00;52778.44;5072728;28;20102;-75
2023/07/25 05:01:38;;;;;;;;;;;;;;;-140.72;100.00;52735.81;5089188;28;19920;-75
2023/07/25 05:04:03;;;;;;;;;;;;;;;-140.72;100.00;52756.13;5091652;28;19926;-74
2023/07/25 05:06:28;;;;;;;;;;;;;;;-140.72;100.00;52748.00;5092443;28;19920;-75
2023/07/25 05:08:53;;;;;;;;;;;;;;;-140.72;100.00;52713.50;5104207;28;19920;-75
2023/07/25 05:11:18;;;;;;;;;;;;;;;-140.72;100.00;52731.75;5092859;28;19920;-77
2023/07/25 05:13:44;;;;;;;;;;;;;;;-140.72;100.00;52764.25;5076597;28;20089;-74
2023/07/25 05:16:09;;;;;;;;;;;;;;;-140.72;100.00;52762.22;5090467;28;19920;-78
2023/07/25 05:18:34;;;;;;;;;;;;;;;-140.72;100.00;52719.59;5070036;28;19939;-77
2023/07/25 05:20:59;;;;;;;;;;;;;;;-140.72;100.00;52733.78;5089450;28;19937;-79
2023/07/25 05:23:25;;;;;;;;;;;;;;;-140.72;100.00;52733.78;5094915;28;20011;-72
2023/07/25 05:25:50;;;;;;;;;;;;;;;-140.72;100.00;52752.06;5092483;28;19977;-72
2023/07/25 05:28:17;;;;;;;;;;;;;;;-140.72;100.00;52733.78;5091979;28;19974;-72
2023/07/25 05:30:43;;;;;;;;;;;;;;;-140.72;100.00;52735.81;5082881;28;19977;-73
2023/07/25 05:33:08;;;;;;;;;;;;;;;-140.72;100.00;52709.44;5085820;28;20018;-72
2023/07/25 05:35:39;;;;;;;;;;;;;;;-140.72;100.00;52723.66;5087625;28;19927;-72
2023/07/25 05:38:07;;;;;;;;;;;;;;;-140.72;100.00;52697.28;5093167;28;19938;-72
2023/07/25 05:43:49;;;;;;;;;;;;;;;-140.72;100.00;52687.13;5087218;28;20007;-72
2023/07/25 05:46:14;;;;;;;;;;;;;;;-140.72;100.00;52739.88;5089564;28;19920;-71
2023/07/25 05:48:39;;;;;;;;;;;;;;;-140.72;100.00;52715.53;5087785;28;19924;-71
2023/07/25 05:51:05;;;;;;;;;;;;;;;-140.72;100.00;52764.25;5091522;28;19961;-71
2023/07/25 05:53:36;;;;;;;;;;;;;;;-140.72;100.00;52723.66;5082514;28;20001;-72
2023/07/25 05:56:01;;;;;;;;;;;;;;;-140.72;100.00;52729.75;5071087;28;19919;-72
2023/07/25 05:58:37;;;;;;;;;;;;;;;-140.72;100.00;52685.09;5089548;28;19931;-71
2023/07/25 06:01:02;;;;;;;;;;;;;;;-140.72;100.00;52733.78;5084756;28;19916;-72
2023/07/25 06:03:46;;;;;;;;;;;;;;;-140.72;100.00;52719.59;5083066;28;19935;-72
2023/07/25 06:06:14;;;;;;;;;;;;;;;-140.72;100.00;52723.66;5089392;28;20392;-75
2023/07/25 06:08:39;;;;;;;;;;;;;;;-140.72;100.00;52719.59;5070793;28;20324;-76
2023/07/25 06:11:07;;;;;;;;;;;;;;;-140.72;100.00;52687.13;5089915;28;19920;-72
2023/07/25 06:13:33;;;;;;;;;;;;;;;-140.72;100.00;52723.66;5090968;28;19973;-72
2023/07/25 06:16:03;;;;;;;;;;;;;;;-140.72;100.00;52723.66;5071435;28;19920;-72
2023/07/25 06:18:28;;;;;;;;;;;;;;;-140.72;100.00;52699.31;5092900;28;19916;-74
2023/07/25 06:20:53;;;;;;;;;;;;;;;-140.72;100.00;52683.06;5092594;28;19931;-73
2023/07/25 06:23:20;;;;;;;;;;;;;;;-140.72;100.00;52727.72;5089808;28;19996;-70
2023/07/25 06:25:45;;;;;;;;;;;;;;;-140.72;100.00;52713.50;5070476;28;19956;-69
2023/07/25 06:28:14;;;;;;;;;;;;;;;-140.72;100.00;52699.31;5077568;28;20433;-69
2023/07/25 06:30:40;;;;;;;;;;;;;;;-140.72;100.00;52685.09;5085511;28;19923;-70
2023/07/25 06:33:05;;;;;;;;;;;;;;;-140.72;100.00;52656.69;5089620;28;19916;-70
2023/07/25 06:35:30;;;;;;;;;;;;;;;-140.72;100.00;52709.44;5074629;28;20014;-69
2023/07/25 06:37:56;;;;;;;;;;;;;;;-140.72;100.00;52709.44;5092483;28;19916;-69
2023/07/25 06:40:21;;;;;;;;;;;;;;;-140.72;100.00;52670.88;5088322;28;20015;-70
2023/07/25 06:42:46;;;;;;;;;;;;;;;-140.72;100.00;52697.28;5075804;28;19916;-70
2023/07/25 06:45:11;;;;;;;;;;;;;;;-140.72;100.00;52662.78;5090381;28;20334;-70
2023/07/25 06:47:37;;;;;;;;;;;;;;;-140.72;100.00;52685.09;5093114;28;20002;-71
2023/07/25 06:50:02;;;;;;;;;;;;;;;-140.72;100.00;52679.00;5076983;28;19975;-70
2023/07/25 06:52:28;;;;;;;;;;;;;;;-140.72;100.00;52642.47;5103393;28;19916;-70
2023/07/25 06:54:53;;;;;;;;;;;;;;;-140.72;100.00;52642.47;5100087;28;19916;-69
2023/07/25 06:57:19;;;;;;;;;;;;;;;-140.72;100.00;52642.47;5066233;28;20392;-69
2023/07/25 06:59:44;;;;;;;;;;;;;;;-140.72;100.00;52634.38;5084539;28;19974;-69
2023/07/25 07:02:09;;;;;;;;;;;;;;;-140.72;100.00;52650.59;5070254;28;19931;-70
2023/07/25 07:04:34;;;;;;;;;;;;;;;-140.72;100.00;52636.38;5081604;28;19965;-69
2023/07/25 07:07:00;;;;;;;;;;;;;;;-140.72;42.05;52642.47;5081954;28;19921;-69
2023/07/25 07:09:25;;;;;;;;;;;;;;;-140.72;4.25;52610.00;5090767;28;19963;-69
2023/07/25 07:11:50;;;;;;;;;;;;;;;-140.72;0.00;52670.88;5090389;28;20311;-70
2023/07/25 07:14:15;;;;;;;;;;;;;;;-140.72;0.00;52630.31;5073917;28;19952;-70
2023/07/25 07:16:41;;;;;;;;;;;;;;;-140.72;0.00;52610.00;5085053;28;19920;-70
2023/07/25 07:19:06;;;;;;;;;;;;;;;-140.72;0.00;52628.28;5080766;28;20403;-70
2023/07/25 07:21:31;;;;;;;;;;;;;;;-140.72;0.00;52656.69;5093683;28;20336;-70
2023/07/25 07:23:57;;;;;;;;;;;;;;;-140.72;0.00;52616.09;5103938;28;19941;-70
2023/07/25 07:26:22;;;;;;;;;;;;;;;-140.72;0.00;52573.50;5090097;28;19947;-70
2023/07/25 07:28:47;;;;;;;;;;;;;;;-140.72;0.00;52605.94;5080313;28;20254;-70
2023/07/25 07:31:13;;;;;;;;;;;;;;;-140.72;0.00;52668.84;5086282;28;19916;-72
2023/07/25 07:33:38;;;;;;;;;;;;;;;-140.72;0.00;52622.19;5083720;28;20269;-70
2023/07/25 07:36:04;;;;;;;;;;;;;;;-140.72;0.00;52642.47;5090141;28;19938;-68
2023/07/25 07:38:29;;;;;;;;;;;;;;;-140.72;0.00;52636.38;5080958;28;20295;-69
2023/07/25 07:40:54;;;;;;;;;;;;;;;-140.72;0.00;52607.97;5096662;28;19956;-69
2023/07/25 07:43:20;;;;;;;;;;;;;;;-140.72;0.00;52553.19;5088446;28;19974;-69
2023/07/25 07:45:45;;;;;;;;;;;;;;;-140.72;0.00;52575.50;5074471;28;19916;-69
2023/07/25 07:48:45;;;;;;;;;;;;;;;-140.72;0.00;52561.31;5080276;28;19920;-71
2023/07/25 07:51:11;;;;;;;;;;;;;;;-140.72;0.00;52520.72;5109986;28;20269;-69
2023/07/25 07:53:38;;;;;;;;;;;;;;;-140.72;0.00;52573.50;5065258;28;20011;-69
2023/07/25 07:56:04;;;;;;;;;;;;;;;-140.72;0.00;52575.50;5091795;28;19965;-69
2023/07/25 07:58:29;;;;;;;;;;;;;;;-140.72;0.00;52557.25;5099550;28;19916;-70
2023/07/25 08:00:55;;;;;;;;;;;;;;;-140.72;0.00;52553.19;5093549;28;19921;-70
2023/07/25 08:03:20;;;;;;;;;;;;;;;-140.72;0.00;52536.97;5084346;28;19973;-70
2023/07/25 08:05:45;;;;;;;;;;;;;;;-140.72;0.00;52528.84;5094654;28;21016;-70
2023/07/25 08:08:10;;;;;;;;;;;;;;;-140.72;0.00;52626.25;5077553;28;19916;-70
2023/07/25 08:10:36;;;;;;;;;;;;;;;-140.72;0.00;52565.38;5091062;28;19920;-69
2023/07/25 08:13:01;;;;;;;;;;;;;;;-140.72;0.00;52549.13;5090683;28;20013;-69
2023/07/25 08:15:26;;;;;;;;;;;;;;;-140.72;0.00;52528.84;5093550;28;20301;-69
2023/07/25 08:17:52;;;;;;;;;;;;;;;-140.72;0.00;52581.59;5089704;28;19938;-69
2023/07/25 08:20:17;;;;;;;;;;;;;;;-140.72;0.00;52549.13;5089442;28;19935;-69
2023/07/25 08:22:43;;;;;;;;;;;;;;;-140.72;0.00;52549.13;5095743;28;19916;-69
2023/07/25 08:25:09;;;;;;;;;;;;;;;-140.72;0.00;52555.22;5085941;28;20308;-70
2023/07/25 08:27:34;;;;;;;;;;;;;;;-140.72;0.00;52524.78;5063824;28;19916;-68
2023/07/25 08:30:06;;;;;;;;;;;;;;;-140.72;0.00;52524.78;5086078;28;19970;-69
2023/07/25 08:32:36;;;;;;;;;;;;;;;-140.72;0.00;52581.59;5086955;28;20385;-72
2023/07/25 08:35:02;;;;;;;;;;;;;;;-140.72;0.00;52610.00;5087794;28;19995;-72
2023/07/25 08:37:27;;;;;;;;;;;;;;;-140.72;0.00;52502.47;5097915;28;20052;-72
2023/07/25 08:39:52;;;;;;;;;;;;;;;-140.72;0.00;52541.03;5107577;28;19920;-72
2023/07/25 08:42:19;;;;;;;;;;;;;;;-140.72;0.00;52532.91;5100811;28;19920;-71
2023/07/25 08:44:47;;;;;;;;;;;;;;;-140.72;0.00;52484.19;5074988;28;20381;-77
2023/07/25 08:47:32;;;;;;;;;;;;;;;-140.72;0.00;52472.03;5088962;28;19920;-71
2023/07/25 08:49:58;;;;;;;;;;;;;;;-140.72;0.00;52445.66;5095069;28;20053;-71
2023/07/25 08:52:45;;;;;;;;;;;;;;;-140.72;0.00;52496.38;5081252;28;19955;-71
2023/07/25 08:55:10;;;;;;;;;;;;;;;-140.72;0.00;52541.03;5085970;28;20400;-72
2023/07/25 08:57:36;;;;;;;;;;;;;;;-140.72;0.00;52518.69;5082770;28;19916;-71
2023/07/25 09:00:02;;;;;;;;;;;;;;;-140.72;0.00;52573.50;5076732;28;19925;-71
2023/07/25 09:02:27;;;;;;;;;;;;;;;-140.72;0.00;52539.00;5091335;28;19944;-72
2023/07/25 09:05:13;;;;;;;;;;;;;;;-140.72;0.00;52567.41;5070983;28;19921;-72
2023/07/25 09:07:39;;;;;;;;;;;;;;;-140.72;0.00;52561.31;5088709;28;19966;-72
2023/07/25 09:10:05;;;;;;;;;;;;;;;-140.72;0.00;52581.59;5081830;28;20362;-72
2023/07/25 09:12:30;;;;;;;;;;;;;;;-140.72;0.00;52474.06;5084927;28;19923;-72
2023/07/25 09:14:56;;;;;;;;;;;;;;;-140.72;0.00;52431.44;5086591;28;19920;-73
2023/07/25 09:17:21;;;;;;;;;;;;;;;-140.72;0.00;52419.28;5097945;28;19920;-73
2023/07/25 09:19:47;;;;;;;;;;;;;;;-140.72;0.00;52421.28;5086013;28;20380;-71
2023/07/25 09:22:28;;;;;;;;;;;;;;;-140.72;0.00;52455.78;5091733;28;19946;-71
2023/07/25 09:24:53;;;;;;;;;;;;;;;-140.72;0.00;52447.69;5085673;28;20013;-72
2023/07/25 09:27:18;;;;;;;;;;;;;;;-140.72;0.00;52472.03;5079054;28;19971;-72
2023/07/25 09:29:45;;;;;;;;;;;;;;;-140.72;0.00;52484.19;5090053;28;20011;-72
2023/07/25 09:32:21;;;;;;;;;;;;;;;-140.72;0.00;52429.41;5089948;28;19924;-72
2023/07/25 09:34:52;;;;;;;;;;;;;;;-140.72;0.00;52403.03;5097837;28;19999;-72
2023/07/25 09:37:17;;;;;;;;;;;;;;;-140.72;0.00;52431.44;5096405;28;19924;-73
2023/07/25 09:39:42;;;;;;;;;;;;;;;-140.72;0.00;52419.28;5091932;28;20003;-72
2023/07/25 09:42:22;;;;;;;;;;;;;;;-140.72;0.00;52342.16;5086279;28;19916;-72
2023/07/25 09:44:48;;;;;;;;;;;;;;;-140.72;0.00;52325.94;5089218;28;19965;-73
2023/07/25 09:47:14;;;;;;;;;;;;;;;-140.72;0.00;52321.88;5091114;28;19920;-72
2023/07/25 09:49:46;;;;;;;;;;;;;;;-140.72;0.00;52299.56;5086412;28;19923;-73
2023/07/25 09:52:11;;;;;;;;;;;;;;;-140.72;0.00;52293.47;5080091;28;20007;-71
2023/07/25 09:54:42;;;;;;;;;;;;;;;-140.72;0.00;52303.59;5094429;28;19959;-73
2023/07/25 09:57:21;;;;;;;;;;;;;;;-140.72;0.00;52352.31;5098510;28;20018;-72
2023/07/25 09:59:48;;;;;;;;;;;;;;;-140.72;0.00;52352.31;5092462;28;19922;-73
2023/07/25 10:02:15;;;;;;;;;;;;;;;-140.72;0.00;52370.56;5085836;28;19975;-72
2023/07/25 10:04:41;;;;;;;;;;;;;;;-140.72;0.00;52405.06;5090851;28;19920;-71
2023/07/25 10:07:07;;;;;;;;;;;;;;;-140.72;0.00;52421.28;5094715;28;19976;-73
2023/07/25 10:09:33;;;;;;;;;;;;;;;-140.72;0.00;52447.69;5093234;28;19916;-73
2023/07/25 10:11:58;;;;;;;;;;;;;;;-140.72;0.00;52439.56;5085557;28;19945;-73
2023/07/25 10:14:24;;;;;;;;;;;;;;;-140.72;0.00;52476.09;5090044;28;19920;-73
2023/07/25 10:16:49;;;;;;;;;;;;;;;-140.72;0.00;52494.34;5089509;28;19920;-72
2023/07/25 10:19:15;;;;;;;;;;;;;;;-140.72;0.00;52474.06;5095960;28;20010;-73
2023/07/25 10:21:48;;;;;;;;;;;;;;;-140.72;0.00;52492.31;5080662;28;19931;-73
2023/07/25 10:24:13;;;;;;;;;;;;;;;-140.72;0.00;52502.47;5089112;28;19935;-73
2023/07/25 10:26:51;;;;;;;;;;;;;;;-140.72;0.00;52463.91;5096739;28;19919;-71
2023/07/25 10:35:41;;;;;;;;;;;;;;;-140.72;0.00;52455.78;5092401;28;19930;-72
2023/07/25 10:38:08;;;;;;;;;;;;;;;-140.72;0.00;52378.69;5084846;28;19917;-72
2023/07/25 10:40:49;;;;;;;;;;;;;;;-140.72;0.00;52382.75;5085491;28;20741;-72
2023/07/25 10:43:14;;;;;;;;;;;;;;;-140.72;0.00;52279.25;5066217;28;20388;-72
2023/07/25 10:45:50;;;;;;;;;;;;;;;-140.72;0.00;52261.00;5092936;28;19966;-72
2023/07/25 10:48:32;;;;;;;;;;;;;;;-140.72;0.00;52348.25;5070831;28;19920;-72
2023/07/25 10:50:57;;;;;;;;;;;;;;;-140.72;0.00;52334.03;5082825;28;20011;-73
2023/07/25 10:53:24;;;;;;;;;;;;;;;-140.72;0.00;52283.31;5081193;28;19951;-72
2023/07/25 10:56:07;;;;;;;;;;;;;;;-140.72;0.00;52332.03;5064013;28;19916;-72
2023/07/25 10:58:51;;;;;;;;;;;;;;;-140.72;0.00;52232.59;5083414;28;19928;-74
2023/07/25 11:01:36;;;;;;;;;;;;;;;-140.72;0.00;52285.34;5093958;28;19924;-75
2023/07/25 11:04:20;;;;;;;;;;;;;;;-140.72;0.00;52118.97;5087545;28;20039;-76
2023/07/25 11:06:45;;;;;;;;;;;;;;;-140.72;0.00;52143.31;5069544;28;19927;-72
2023/07/25 11:09:11;;;;;;;;;;;;;;;-140.72;0.00;52210.28;5080549;28;20356;-72
2023/07/25 11:11:45;;;;;;;;;;;;;;;-140.72;0.00;52131.16;5086033;28;19920;-73
2023/07/25 11:14:14;;;;;;;;;;;;;;;-140.72;0.00;52070.28;5082614;28;20347;-72
2023/07/25 11:16:40;;;;;;;;;;;;;;;-140.72;0.00;52100.72;5091439;28;19974;-72
2023/07/25 11:19:06;;;;;;;;;;;;;;;-140.72;0.00;52206.22;5085852;28;19916;-72
2023/07/25 11:21:36;;;;;;;;;;;;;;;-140.72;0.00;52271.16;5094614;28;19975;-72
2023/07/25 11:24:03;;;;;;;;;;;;;;;-140.72;0.00;52342.16;5092973;28;19920;-72
2023/07/25 11:26:39;;;;;;;;;;;;;;;-140.72;0.00;52305.63;5095027;28;19924;-72
2023/07/25 11:29:07;;;;;;;;;;;;;;;-140.72;0.00;52336.06;5094728;28;19920;-72
2023/07/25 11:31:33;;;;;;;;;;;;;;;-140.72;0.00;52098.69;5084958;28;19927;-74
2023/07/25 11:34:07;;;;;;;;;;;;;;;-140.72;0.00;52033.75;5091914;28;19988;-72
2023/07/25 11:36:39;;;;;;;;;;;;;;;-140.72;0.00;52029.69;5093156;28;20011;-72
2023/07/25 11:39:04;;;;;;;;;;;;;;;-140.72;0.00;52086.50;5089067;28;19920;-72
2023/07/25 11:41:31;;;;;;;;;;;;;;;-140.72;0.00;52049.97;5080498;28;20023;-72
2023/07/25 11:43:56;;;;;;;;;;;;;;;-140.72;0.00;51966.81;5087729;28;20354;-72
2023/07/25 11:46:21;;;;;;;;;;;;;;;-140.72;0.00;51974.91;5091492;28;20029;-73
2023/07/25 11:48:47;;;;;;;;;;;;;;;-140.72;0.00;51932.31;5064384;28;20357;-73
2023/07/25 11:51:12;;;;;;;;;;;;;;;-140.72;0.00;52021.56;5085999;28;19932;-73
2023/07/25 11:53:38;;;;;;;;;;;;;;;-140.72;0.00;52114.91;5089878;28;20027;-72
2023/07/25 11:56:03;;;;;;;;;;;;;;;-140.72;0.00;52256.94;5089913;28;20401;-73
2023/07/25 11:58:29;;;;;;;;;;;;;;;-140.72;0.00;52242.75;5083463;28;19999;-72
2023/07/25 12:00:54;;;;;;;;;;;;;;;-140.72;0.00;52121.00;5096600;28;19959;-72
2023/07/25 12:03:23;;;;;;;;;;;;;;;-140.72;0.00;52060.13;5085267;28;20314;-73
2023/07/25 12:08:39;;;;;;;;;;;;;;;-140.72;0.00;51946.50;5091511;28;19963;-72
2023/07/25 12:11:06;;;;;;;;;;;;;;;-140.72;0.00;51928.25;5087165;28;20270;-73
2023/07/25 12:13:57;;;;;;;;;;;;;;;-140.72;0.00;52037.81;5103282;28;20387;-71
2023/07/25 12:16:29;;;;;;;;;;;;;;;-140.72;0.00;51978.97;5092716;28;19920;-71
2023/07/25 12:18:56;;;;;;;;;;;;;;;-140.72;0.00;51981.00;5095636;28;19942;-72
2023/07/25 12:21:23;;;;;;;;;;;;;;;-140.72;0.00;51938.41;5093109;28;19920;-72
2023/07/25 12:23:50;;;;;;;;;;;;;;;-140.72;0.00;52121.00;5090795;28;20404;-71
2023/07/25 12:26:20;;;;;;;;;;;;;;;-140.72;0.00;52043.91;5091317;28;20387;-72
2023/07/25 12:28:46;;;;;;;;;;;;;;;-140.72;0.00;51987.09;5081160;28;19920;-70
2023/07/25 12:31:11;;;;;;;;;;;;;;;-140.72;0.00;51936.38;5088251;28;20267;-71
2023/07/25 12:33:44;;;;;;;;;;;;;;;-140.72;0.00;51893.75;5092789;28;19920;-71
2023/07/25 12:36:23;;;;;;;;;;;;;;;-140.72;0.00;51930.28;5091063;28;19995;-70